Hua Hin, Thailand
Current Conditions -  °F | °C
As of 4:30 PM on Sunday 26 Oct 2014 (Local Time) from VTBU Reporting Station
Broken Clouds Broken Clouds  
Wind Chill: 84°   Ceiling: 30000
Heat Index: 92°   Visibility: 6mi
Dew Point: 75°   Wind: 3mph
Humidity: 74%   Direction: 280°W
Pressure: 29.83"   Gusts: NA
Location:  12.57°N, 99.95°E
Report Text: VTBU 260930Z 28003KT 9999 FEW020CB SCT120 BKN300 29/24 Q1010 A2984 CB NW-N
Loading
Personal Weather Stations






























Interactive Weather Map New forecast layout! Learn more

10-Day Weather Forecast

Advertisements
Track Severe Weather on mobile